sensor_id;sensor_type;location;lat;lon;timestamp;P1;durP1;ratioP1;P2;durP2;ratioP2
45540;SDS011;31265;49.680;8.608;2023-06-26T00:01:31;3.33;;;1.67;;
45540;SDS011;31265;49.680;8.608;2023-06-26T00:04:00;3.60;;;1.35;;
45540;SDS011;31265;49.680;8.608;2023-06-26T00:06:29;4.55;;;2.03;;
45540;SDS011;31265;49.680;8.608;2023-06-26T00:08:58;3.85;;;1.67;;
45540;SDS011;31265;49.680;8.608;2023-06-26T00:11:26;4.60;;;2.15;;
45540;SDS011;31265;49.680;8.608;2023-06-26T00:13:57;4.93;;;2.03;;
45540;SDS011;31265;49.680;8.608;2023-06-26T00:16:26;3.30;;;1.50;;
45540;SDS011;31265;49.680;8.608;2023-06-26T00:18:56;5.30;;;1.73;;
45540;SDS011;31265;49.680;8.608;2023-06-26T00:21:25;3.03;;;1.48;;
45540;SDS011;31265;49.680;8.608;2023-06-26T00:23:54;3.33;;;1.40;;
45540;SDS011;31265;49.680;8.608;2023-06-26T00:26:22;3.25;;;1.83;;
45540;SDS011;31265;49.680;8.608;2023-06-26T00:28:52;2.75;;;1.40;;
45540;SDS011;31265;49.680;8.608;2023-06-26T00:31:20;2.80;;;1.48;;
45540;SDS011;31265;49.680;8.608;2023-06-26T00:33:48;3.28;;;1.75;;
45540;SDS011;31265;49.680;8.608;2023-06-26T00:36:19;2.80;;;1.33;;
45540;SDS011;31265;49.680;8.608;2023-06-26T00:38:49;4.13;;;1.60;;
45540;SDS011;31265;49.680;8.608;2023-06-26T00:41:17;3.80;;;1.73;;
45540;SDS011;31265;49.680;8.608;2023-06-26T00:43:46;3.45;;;1.92;;
45540;SDS011;31265;49.680;8.608;2023-06-26T00:46:14;5.03;;;1.65;;
45540;SDS011;31265;49.680;8.608;2023-06-26T00:48:43;3.65;;;1.85;;
45540;SDS011;31265;49.680;8.608;2023-06-26T00:51:14;4.60;;;1.73;;
45540;SDS011;31265;49.680;8.608;2023-06-26T00:53:44;3.03;;;1.83;;
45540;SDS011;31265;49.680;8.608;2023-06-26T00:56:12;3.30;;;1.58;;
45540;SDS011;31265;49.680;8.608;2023-06-26T00:58:42;4.03;;;1.67;;
45540;SDS011;31265;49.680;8.608;2023-06-26T01:01:10;5.50;;;2.08;;
45540;SDS011;31265;49.680;8.608;2023-06-26T01:03:44;3.85;;;1.75;;
45540;SDS011;31265;49.680;8.608;2023-06-26T01:06:13;4.03;;;2.10;;
45540;SDS011;31265;49.680;8.608;2023-06-26T01:08:45;5.07;;;1.73;;
45540;SDS011;31265;49.680;8.608;2023-06-26T01:11:14;3.88;;;1.58;;
45540;SDS011;31265;49.680;8.608;2023-06-26T01:13:43;4.13;;;1.80;;
45540;SDS011;31265;49.680;8.608;2023-06-26T01:16:11;4.17;;;1.83;;
45540;SDS011;31265;49.680;8.608;2023-06-26T01:18:41;5.20;;;2.15;;
45540;SDS011;31265;49.680;8.608;2023-06-26T01:21:12;3.85;;;1.98;;
45540;SDS011;31265;49.680;8.608;2023-06-26T01:23:47;2.92;;;1.38;;
45540;SDS011;31265;49.680;8.608;2023-06-26T01:26:27;3.13;;;1.58;;
45540;SDS011;31265;49.680;8.608;2023-06-26T01:28:58;3.92;;;1.55;;
45540;SDS011;31265;49.680;8.608;2023-06-26T01:31:28;4.85;;;2.10;;
45540;SDS011;31265;49.680;8.608;2023-06-26T01:33:58;3.72;;;1.70;;
45540;SDS011;31265;49.680;8.608;2023-06-26T01:36:28;2.92;;;1.40;;
45540;SDS011;31265;49.680;8.608;2023-06-26T01:38:56;5.47;;;2.20;;
45540;SDS011;31265;49.680;8.608;2023-06-26T01:41:24;3.47;;;1.50;;
45540;SDS011;31265;49.680;8.608;2023-06-26T01:44:01;4.05;;;1.70;;
45540;SDS011;31265;49.680;8.608;2023-06-26T01:46:42;4.40;;;1.98;;
45540;SDS011;31265;49.680;8.608;2023-06-26T01:49:24;4.72;;;1.80;;
45540;SDS011;31265;49.680;8.608;2023-06-26T01:52:03;3.22;;;1.70;;
45540;SDS011;31265;49.680;8.608;2023-06-26T01:54:39;4.45;;;1.75;;
45540;SDS011;31265;49.680;8.608;2023-06-26T01:57:14;3.95;;;1.92;;
45540;SDS011;31265;49.680;8.608;2023-06-26T01:59:46;3.83;;;1.50;;
45540;SDS011;31265;49.680;8.608;2023-06-26T02:02:15;3.60;;;1.80;;
45540;SDS011;31265;49.680;8.608;2023-06-26T02:07:15;3.72;;;1.50;;
45540;SDS011;31265;49.680;8.608;2023-06-26T02:09:43;3.80;;;2.08;;
45540;SDS011;31265;49.680;8.608;2023-06-26T02:12:12;3.30;;;1.60;;
45540;SDS011;31265;49.680;8.608;2023-06-26T02:14:42;3.80;;;1.63;;
45540;SDS011;31265;49.680;8.608;2023-06-26T02:17:10;3.92;;;1.98;;
45540;SDS011;31265;49.680;8.608;2023-06-26T02:19:39;3.77;;;1.70;;
45540;SDS011;31265;49.680;8.608;2023-06-26T02:22:14;3.60;;;1.70;;
45540;SDS011;31265;49.680;8.608;2023-06-26T02:24:46;3.72;;;1.83;;
45540;SDS011;31265;49.680;8.608;2023-06-26T02:27:15;3.90;;;1.73;;
45540;SDS011;31265;49.680;8.608;2023-06-26T02:29:44;3.63;;;1.52;;
45540;SDS011;31265;49.680;8.608;2023-06-26T02:32:13;3.35;;;1.75;;
45540;SDS011;31265;49.680;8.608;2023-06-26T02:34:41;4.05;;;1.65;;
45540;SDS011;31265;49.680;8.608;2023-06-26T02:37:09;3.08;;;1.25;;
45540;SDS011;31265;49.680;8.608;2023-06-26T02:39:38;3.28;;;1.50;;
45540;SDS011;31265;49.680;8.608;2023-06-26T02:42:09;4.03;;;1.55;;
45540;SDS011;31265;49.680;8.608;2023-06-26T02:44:37;4.53;;;1.90;;
45540;SDS011;31265;49.680;8.608;2023-06-26T02:47:07;3.95;;;1.85;;
45540;SDS011;31265;49.680;8.608;2023-06-26T02:49:39;4.72;;;2.17;;
45540;SDS011;31265;49.680;8.608;2023-06-26T02:52:08;3.65;;;1.65;;
45540;SDS011;31265;49.680;8.608;2023-06-26T02:54:36;3.13;;;1.38;;
45540;SDS011;31265;49.680;8.608;2023-06-26T02:57:05;3.88;;;1.98;;
45540;SDS011;31265;49.680;8.608;2023-06-26T02:59:34;4.57;;;1.97;;
45540;SDS011;31265;49.680;8.608;2023-06-26T03:02:02;3.38;;;1.67;;
45540;SDS011;31265;49.680;8.608;2023-06-26T03:04:39;4.68;;;2.00;;
45540;SDS011;31265;49.680;8.608;2023-06-26T03:07:12;3.10;;;1.58;;
45540;SDS011;31265;49.680;8.608;2023-06-26T03:12:10;3.47;;;1.85;;
45540;SDS011;31265;49.680;8.608;2023-06-26T03:14:38;5.25;;;2.15;;
45540;SDS011;31265;49.680;8.608;2023-06-26T03:17:06;6.05;;;2.00;;
45540;SDS011;31265;49.680;8.608;2023-06-26T03:19:36;3.97;;;1.77;;
45540;SDS011;31265;49.680;8.608;2023-06-26T03:22:21;4.00;;;1.98;;
45540;SDS011;31265;49.680;8.608;2023-06-26T03:24:49;3.72;;;1.73;;
45540;SDS011;31265;49.680;8.608;2023-06-26T03:27:18;4.10;;;1.70;;
45540;SDS011;31265;49.680;8.608;2023-06-26T03:29:48;4.55;;;1.80;;
45540;SDS011;31265;49.680;8.608;2023-06-26T03:32:17;4.68;;;2.10;;
45540;SDS011;31265;49.680;8.608;2023-06-26T03:34:48;4.88;;;2.03;;
45540;SDS011;31265;49.680;8.608;2023-06-26T03:37:16;5.18;;;2.47;;
45540;SDS011;31265;49.680;8.608;2023-06-26T03:39:44;4.68;;;2.17;;
45540;SDS011;31265;49.680;8.608;2023-06-26T03:42:13;3.30;;;1.33;;
45540;SDS011;31265;49.680;8.608;2023-06-26T03:47:11;3.17;;;1.63;;
45540;SDS011;31265;49.680;8.608;2023-06-26T03:49:40;4.55;;;2.05;;
45540;SDS011;31265;49.680;8.608;2023-06-26T03:52:09;4.22;;;1.88;;
45540;SDS011;31265;49.680;8.608;2023-06-26T03:54:39;4.07;;;2.10;;
45540;SDS011;31265;49.680;8.608;2023-06-26T03:57:09;5.30;;;2.03;;
45540;SDS011;31265;49.680;8.608;2023-06-26T03:59:38;6.97;;;2.13;;
45540;SDS011;31265;49.680;8.608;2023-06-26T04:02:06;3.97;;;2.00;;
45540;SDS011;31265;49.680;8.608;2023-06-26T04:04:35;5.32;;;2.55;;
45540;SDS011;31265;49.680;8.608;2023-06-26T04:07:04;4.38;;;1.98;;
45540;SDS011;31265;49.680;8.608;2023-06-26T04:09:35;5.57;;;1.77;;
45540;SDS011;31265;49.680;8.608;2023-06-26T04:12:04;3.72;;;1.88;;
45540;SDS011;31265;49.680;8.608;2023-06-26T04:14:33;4.03;;;2.05;;
45540;SDS011;31265;49.680;8.608;2023-06-26T04:17:02;2.85;;;1.50;;
45540;SDS011;31265;49.680;8.608;2023-06-26T04:19:31;4.05;;;1.85;;
45540;SDS011;31265;49.680;8.608;2023-06-26T04:24:28;3.42;;;1.70;;
45540;SDS011;31265;49.680;8.608;2023-06-26T04:26:58;6.05;;;2.40;;
45540;SDS011;31265;49.680;8.608;2023-06-26T04:31:56;4.60;;;2.20;;
45540;SDS011;31265;49.680;8.608;2023-06-26T04:34:25;4.95;;;2.00;;
45540;SDS011;31265;49.680;8.608;2023-06-26T04:36:54;8.73;;;2.50;;
45540;SDS011;31265;49.680;8.608;2023-06-26T04:39:22;4.80;;;2.30;;
45540;SDS011;31265;49.680;8.608;2023-06-26T04:41:50;3.92;;;1.95;;
45540;SDS011;31265;49.680;8.608;2023-06-26T04:44:21;4.72;;;2.30;;
45540;SDS011;31265;49.680;8.608;2023-06-26T04:46:49;3.83;;;1.80;;
45540;SDS011;31265;49.680;8.608;2023-06-26T04:49:18;4.30;;;2.10;;
45540;SDS011;31265;49.680;8.608;2023-06-26T04:51:47;4.57;;;1.70;;
45540;SDS011;31265;49.680;8.608;2023-06-26T04:54:17;3.30;;;1.92;;
45540;SDS011;31265;49.680;8.608;2023-06-26T04:56:46;4.53;;;2.20;;
45540;SDS011;31265;49.680;8.608;2023-06-26T04:59:14;4.20;;;2.00;;
45540;SDS011;31265;49.680;8.608;2023-06-26T05:01:44;4.82;;;2.10;;
45540;SDS011;31265;49.680;8.608;2023-06-26T05:04:15;4.63;;;2.45;;
45540;SDS011;31265;49.680;8.608;2023-06-26T05:06:44;5.18;;;2.97;;
45540;SDS011;31265;49.680;8.608;2023-06-26T05:09:12;5.93;;;3.08;;
45540;SDS011;31265;49.680;8.608;2023-06-26T05:11:41;6.07;;;2.97;;
45540;SDS011;31265;49.680;8.608;2023-06-26T05:14:09;4.93;;;2.47;;
45540;SDS011;31265;49.680;8.608;2023-06-26T05:16:37;6.32;;;3.13;;
45540;SDS011;31265;49.680;8.608;2023-06-26T05:19:07;6.00;;;2.60;;
45540;SDS011;31265;49.680;8.608;2023-06-26T05:21:35;7.20;;;3.38;;
45540;SDS011;31265;49.680;8.608;2023-06-26T05:24:04;7.38;;;3.30;;
45540;SDS011;31265;49.680;8.608;2023-06-26T05:26:34;8.70;;;3.03;;
45540;SDS011;31265;49.680;8.608;2023-06-26T05:29:03;6.87;;;2.23;;
45540;SDS011;31265;49.680;8.608;2023-06-26T05:31:32;15.82;;;3.47;;
45540;SDS011;31265;49.680;8.608;2023-06-26T05:34:02;6.47;;;2.50;;
45540;SDS011;31265;49.680;8.608;2023-06-26T05:36:32;4.53;;;2.40;;
45540;SDS011;31265;49.680;8.608;2023-06-26T05:39:02;4.45;;;2.13;;
45540;SDS011;31265;49.680;8.608;2023-06-26T05:41:31;6.80;;;2.50;;
45540;SDS011;31265;49.680;8.608;2023-06-26T05:43:59;3.83;;;2.40;;
45540;SDS011;31265;49.680;8.608;2023-06-26T05:46:28;9.48;;;2.38;;
45540;SDS011;31265;49.680;8.608;2023-06-26T05:48:56;5.40;;;2.53;;
45540;SDS011;31265;49.680;8.608;2023-06-26T05:51:25;5.30;;;2.58;;
45540;SDS011;31265;49.680;8.608;2023-06-26T05:53:55;5.78;;;3.08;;
45540;SDS011;31265;49.680;8.608;2023-06-26T05:56:23;7.40;;;3.78;;
45540;SDS011;31265;49.680;8.608;2023-06-26T05:58:52;7.60;;;3.20;;
45540;SDS011;31265;49.680;8.608;2023-06-26T06:01:22;9.18;;;4.20;;
45540;SDS011;31265;49.680;8.608;2023-06-26T06:03:50;7.90;;;3.75;;
45540;SDS011;31265;49.680;8.608;2023-06-26T06:06:18;6.85;;;3.25;;
45540;SDS011;31265;49.680;8.608;2023-06-26T06:08:46;6.38;;;3.25;;
45540;SDS011;31265;49.680;8.608;2023-06-26T06:11:16;7.35;;;3.20;;
45540;SDS011;31265;49.680;8.608;2023-06-26T06:13:45;6.53;;;3.22;;
45540;SDS011;31265;49.680;8.608;2023-06-26T06:16:13;6.53;;;3.33;;
45540;SDS011;31265;49.680;8.608;2023-06-26T06:18:41;6.93;;;3.17;;
45540;SDS011;31265;49.680;8.608;2023-06-26T06:21:10;6.80;;;3.25;;
45540;SDS011;31265;49.680;8.608;2023-06-26T06:23:38;8.00;;;3.28;;
45540;SDS011;31265;49.680;8.608;2023-06-26T06:26:06;6.45;;;3.10;;
45540;SDS011;31265;49.680;8.608;2023-06-26T06:28:36;8.95;;;4.30;;
45540;SDS011;31265;49.680;8.608;2023-06-26T06:31:04;4.95;;;2.60;;
45540;SDS011;31265;49.680;8.608;2023-06-26T06:33:33;8.00;;;3.20;;
45540;SDS011;31265;49.680;8.608;2023-06-26T06:36:02;7.23;;;3.57;;
45540;SDS011;31265;49.680;8.608;2023-06-26T06:40:59;5.65;;;3.20;;
45540;SDS011;31265;49.680;8.608;2023-06-26T06:45:58;4.68;;;2.70;;
45540;SDS011;31265;49.680;8.608;2023-06-26T06:48:27;6.30;;;3.20;;
45540;SDS011;31265;49.680;8.608;2023-06-26T06:50:55;6.47;;;2.70;;
45540;SDS011;31265;49.680;8.608;2023-06-26T06:53:23;9.65;;;3.05;;
45540;SDS011;31265;49.680;8.608;2023-06-26T06:55:51;5.22;;;2.92;;
45540;SDS011;31265;49.680;8.608;2023-06-26T06:58:20;6.18;;;3.03;;
45540;SDS011;31265;49.680;8.608;2023-06-26T07:00:49;4.97;;;2.45;;
45540;SDS011;31265;49.680;8.608;2023-06-26T07:03:20;8.77;;;3.22;;
45540;SDS011;31265;49.680;8.608;2023-06-26T07:05:49;5.97;;;3.00;;
45540;SDS011;31265;49.680;8.608;2023-06-26T07:08:18;5.78;;;2.90;;
45540;SDS011;31265;49.680;8.608;2023-06-26T07:10:46;4.85;;;2.83;;
45540;SDS011;31265;49.680;8.608;2023-06-26T07:13:15;4.83;;;2.63;;
45540;SDS011;31265;49.680;8.608;2023-06-26T07:15:43;5.72;;;2.78;;
45540;SDS011;31265;49.680;8.608;2023-06-26T07:18:14;8.15;;;2.95;;
45540;SDS011;31265;49.680;8.608;2023-06-26T07:20:44;8.50;;;3.05;;
45540;SDS011;31265;49.680;8.608;2023-06-26T07:23:13;9.52;;;3.25;;
45540;SDS011;31265;49.680;8.608;2023-06-26T07:25:41;8.00;;;2.80;;
45540;SDS011;31265;49.680;8.608;2023-06-26T07:28:10;5.77;;;2.73;;
45540;SDS011;31265;49.680;8.608;2023-06-26T07:30:38;5.85;;;3.38;;
45540;SDS011;31265;49.680;8.608;2023-06-26T07:33:07;5.80;;;2.83;;
45540;SDS011;31265;49.680;8.608;2023-06-26T07:35:35;4.78;;;2.35;;
45540;SDS011;31265;49.680;8.608;2023-06-26T07:38:05;7.50;;;2.58;;
45540;SDS011;31265;49.680;8.608;2023-06-26T07:40:33;5.32;;;2.85;;
45540;SDS011;31265;49.680;8.608;2023-06-26T07:43:02;4.30;;;2.60;;
45540;SDS011;31265;49.680;8.608;2023-06-26T07:45:30;5.85;;;2.92;;
45540;SDS011;31265;49.680;8.608;2023-06-26T07:47:59;6.00;;;2.53;;
45540;SDS011;31265;49.680;8.608;2023-06-26T07:50:27;6.03;;;2.60;;
45540;SDS011;31265;49.680;8.608;2023-06-26T07:52:57;6.00;;;2.60;;
45540;SDS011;31265;49.680;8.608;2023-06-26T07:55:27;4.78;;;2.60;;
45540;SDS011;31265;49.680;8.608;2023-06-26T07:57:55;5.28;;;2.92;;
45540;SDS011;31265;49.680;8.608;2023-06-26T08:00:24;4.53;;;2.43;;
45540;SDS011;31265;49.680;8.608;2023-06-26T08:02:53;4.05;;;2.40;;
45540;SDS011;31265;49.680;8.608;2023-06-26T08:05:21;4.13;;;2.35;;
45540;SDS011;31265;49.680;8.608;2023-06-26T08:07:50;5.70;;;2.73;;
45540;SDS011;31265;49.680;8.608;2023-06-26T08:10:18;6.10;;;3.00;;
45540;SDS011;31265;49.680;8.608;2023-06-26T08:12:48;8.13;;;2.90;;
45540;SDS011;31265;49.680;8.608;2023-06-26T08:15:17;4.50;;;2.65;;
45540;SDS011;31265;49.680;8.608;2023-06-26T08:17:46;9.80;;;3.63;;
45540;SDS011;31265;49.680;8.608;2023-06-26T08:20:14;5.20;;;2.53;;
45540;SDS011;31265;49.680;8.608;2023-06-26T08:22:43;5.63;;;3.07;;
45540;SDS011;31265;49.680;8.608;2023-06-26T08:25:11;4.68;;;2.40;;
45540;SDS011;31265;49.680;8.608;2023-06-26T08:27:40;4.93;;;2.77;;
45540;SDS011;31265;49.680;8.608;2023-06-26T08:30:10;4.85;;;2.60;;
45540;SDS011;31265;49.680;8.608;2023-06-26T08:32:39;4.10;;;2.10;;
45540;SDS011;31265;49.680;8.608;2023-06-26T08:35:07;4.63;;;2.40;;
45540;SDS011;31265;49.680;8.608;2023-06-26T08:37:37;5.47;;;2.70;;
45540;SDS011;31265;49.680;8.608;2023-06-26T08:40:06;5.22;;;2.78;;
45540;SDS011;31265;49.680;8.608;2023-06-26T08:42:35;4.68;;;2.55;;
45540;SDS011;31265;49.680;8.608;2023-06-26T08:45:04;5.78;;;2.53;;
45540;SDS011;31265;49.680;8.608;2023-06-26T08:47:34;4.28;;;1.95;;
45540;SDS011;31265;49.680;8.608;2023-06-26T08:50:07;5.00;;;2.25;;
45540;SDS011;31265;49.680;8.608;2023-06-26T08:52:39;5.43;;;1.95;;
45540;SDS011;31265;49.680;8.608;2023-06-26T08:55:11;3.33;;;1.98;;
45540;SDS011;31265;49.680;8.608;2023-06-26T08:57:43;6.53;;;2.38;;
45540;SDS011;31265;49.680;8.608;2023-06-26T09:00:14;4.00;;;2.15;;
45540;SDS011;31265;49.680;8.608;2023-06-26T09:02:44;4.95;;;2.08;;
45540;SDS011;31265;49.680;8.608;2023-06-26T09:05:13;5.25;;;2.65;;
45540;SDS011;31265;49.680;8.608;2023-06-26T09:07:43;5.22;;;2.50;;
45540;SDS011;31265;49.680;8.608;2023-06-26T09:10:12;3.30;;;2.05;;
45540;SDS011;31265;49.680;8.608;2023-06-26T09:12:40;3.40;;;2.00;;
45540;SDS011;31265;49.680;8.608;2023-06-26T09:15:08;4.15;;;2.35;;
45540;SDS011;31265;49.680;8.608;2023-06-26T09:20:10;4.05;;;2.33;;
45540;SDS011;31265;49.680;8.608;2023-06-26T09:22:42;3.53;;;2.17;;
45540;SDS011;31265;49.680;8.608;2023-06-26T09:25:11;5.43;;;2.35;;
45540;SDS011;31265;49.680;8.608;2023-06-26T09:27:39;4.70;;;2.57;;
45540;SDS011;31265;49.680;8.608;2023-06-26T09:30:10;4.32;;;2.17;;
45540;SDS011;31265;49.680;8.608;2023-06-26T09:32:41;4.97;;;2.63;;
45540;SDS011;31265;49.680;8.608;2023-06-26T09:35:11;3.42;;;2.35;;
45540;SDS011;31265;49.680;8.608;2023-06-26T09:37:39;3.95;;;2.50;;
45540;SDS011;31265;49.680;8.608;2023-06-26T09:40:08;4.77;;;2.43;;
45540;SDS011;31265;49.680;8.608;2023-06-26T09:42:37;6.32;;;2.60;;
45540;SDS011;31265;49.680;8.608;2023-06-26T09:45:05;4.00;;;2.10;;
45540;SDS011;31265;49.680;8.608;2023-06-26T09:50:03;3.65;;;2.15;;
45540;SDS011;31265;49.680;8.608;2023-06-26T09:52:35;3.92;;;2.05;;
45540;SDS011;31265;49.680;8.608;2023-06-26T09:55:10;4.20;;;2.72;;
45540;SDS011;31265;49.680;8.608;2023-06-26T09:57:39;3.30;;;1.73;;
45540;SDS011;31265;49.680;8.608;2023-06-26T10:00:08;3.55;;;2.08;;
45540;SDS011;31265;49.680;8.608;2023-06-26T10:02:38;3.72;;;2.13;;
45540;SDS011;31265;49.680;8.608;2023-06-26T10:07:37;4.90;;;2.33;;
45540;SDS011;31265;49.680;8.608;2023-06-26T10:10:07;3.63;;;1.70;;
45540;SDS011;31265;49.680;8.608;2023-06-26T10:12:38;3.03;;;1.90;;
45540;SDS011;31265;49.680;8.608;2023-06-26T10:15:06;3.50;;;2.05;;
45540;SDS011;31265;49.680;8.608;2023-06-26T10:17:39;3.22;;;1.75;;
45540;SDS011;31265;49.680;8.608;2023-06-26T10:20:11;2.65;;;1.52;;
45540;SDS011;31265;49.680;8.608;2023-06-26T10:22:44;3.22;;;1.55;;
45540;SDS011;31265;49.680;8.608;2023-06-26T10:25:17;3.92;;;1.80;;
45540;SDS011;31265;49.680;8.608;2023-06-26T10:27:49;3.83;;;2.22;;
45540;SDS011;31265;49.680;8.608;2023-06-26T10:30:22;3.33;;;1.50;;
45540;SDS011;31265;49.680;8.608;2023-06-26T10:32:54;7.68;;;2.50;;
45540;SDS011;31265;49.680;8.608;2023-06-26T10:37:59;3.65;;;1.70;;
45540;SDS011;31265;49.680;8.608;2023-06-26T10:40:39;3.40;;;1.80;;
45540;SDS011;31265;49.680;8.608;2023-06-26T10:43:09;4.50;;;2.22;;
45540;SDS011;31265;49.680;8.608;2023-06-26T10:45:43;3.45;;;1.67;;
45540;SDS011;31265;49.680;8.608;2023-06-26T10:48:14;3.38;;;1.80;;
45540;SDS011;31265;49.680;8.608;2023-06-26T10:50:42;4.30;;;1.95;;
45540;SDS011;31265;49.680;8.608;2023-06-26T10:53:14;3.60;;;1.95;;
45540;SDS011;31265;49.680;8.608;2023-06-26T10:55:49;4.20;;;1.55;;
45540;SDS011;31265;49.680;8.608;2023-06-26T10:58:26;3.55;;;1.80;;
45540;SDS011;31265;49.680;8.608;2023-06-26T11:03:49;6.20;;;2.00;;
45540;SDS011;31265;49.680;8.608;2023-06-26T11:06:30;3.30;;;1.60;;
45540;SDS011;31265;49.680;8.608;2023-06-26T11:09:01;4.22;;;1.60;;
45540;SDS011;31265;49.680;8.608;2023-06-26T11:14:25;3.90;;;1.92;;
45540;SDS011;31265;49.680;8.608;2023-06-26T11:16:57;3.63;;;2.20;;
45540;SDS011;31265;49.680;8.608;2023-06-26T11:19:27;3.92;;;1.77;;
45540;SDS011;31265;49.680;8.608;2023-06-26T11:22:01;5.75;;;2.08;;
45540;SDS011;31265;49.680;8.608;2023-06-26T11:24:32;5.10;;;2.67;;
45540;SDS011;31265;49.680;8.608;2023-06-26T11:27:01;6.53;;;1.55;;
45540;SDS011;31265;49.680;8.608;2023-06-26T11:29:31;4.05;;;1.70;;
45540;SDS011;31265;49.680;8.608;2023-06-26T11:32:01;2.92;;;1.70;;
45540;SDS011;31265;49.680;8.608;2023-06-26T11:34:32;3.03;;;1.70;;
45540;SDS011;31265;49.680;8.608;2023-06-26T11:39:30;3.22;;;1.77;;
45540;SDS011;31265;49.680;8.608;2023-06-26T11:42:00;4.72;;;1.95;;
45540;SDS011;31265;49.680;8.608;2023-06-26T11:44:29;4.70;;;1.90;;
45540;SDS011;31265;49.680;8.608;2023-06-26T11:46:59;4.68;;;1.98;;
45540;SDS011;31265;49.680;8.608;2023-06-26T11:49:27;2.88;;;1.73;;
45540;SDS011;31265;49.680;8.608;2023-06-26T11:51:56;5.60;;;2.13;;
45540;SDS011;31265;49.680;8.608;2023-06-26T11:56:57;3.47;;;2.05;;
45540;SDS011;31265;49.680;8.608;2023-06-26T11:59:34;3.70;;;1.90;;
45540;SDS011;31265;49.680;8.608;2023-06-26T12:02:06;3.13;;;1.90;;
45540;SDS011;31265;49.680;8.608;2023-06-26T12:04:36;3.22;;;2.05;;
45540;SDS011;31265;49.680;8.608;2023-06-26T12:07:08;3.15;;;2.00;;
45540;SDS011;31265;49.680;8.608;2023-06-26T12:09:38;3.22;;;1.73;;
45540;SDS011;31265;49.680;8.608;2023-06-26T12:12:10;3.55;;;1.50;;
45540;SDS011;31265;49.680;8.608;2023-06-26T12:14:39;3.08;;;1.73;;
45540;SDS011;31265;49.680;8.608;2023-06-26T12:17:09;5.00;;;1.58;;
45540;SDS011;31265;49.680;8.608;2023-06-26T12:19:39;3.15;;;1.75;;
45540;SDS011;31265;49.680;8.608;2023-06-26T12:22:10;3.13;;;1.70;;
45540;SDS011;31265;49.680;8.608;2023-06-26T12:24:39;3.08;;;1.70;;
45540;SDS011;31265;49.680;8.608;2023-06-26T12:27:11;2.90;;;1.42;;
45540;SDS011;31265;49.680;8.608;2023-06-26T12:29:48;3.33;;;1.90;;
45540;SDS011;31265;49.680;8.608;2023-06-26T12:32:19;4.07;;;1.63;;
45540;SDS011;31265;49.680;8.608;2023-06-26T12:34:48;2.40;;;1.50;;
45540;SDS011;31265;49.680;8.608;2023-06-26T12:37:17;3.40;;;1.83;;
45540;SDS011;31265;49.680;8.608;2023-06-26T12:39:47;6.07;;;1.20;;
45540;SDS011;31265;49.680;8.608;2023-06-26T12:42:18;3.80;;;2.05;;
45540;SDS011;31265;49.680;8.608;2023-06-26T12:44:47;3.90;;;1.52;;
45540;SDS011;31265;49.680;8.608;2023-06-26T12:47:16;3.83;;;1.90;;
45540;SDS011;31265;49.680;8.608;2023-06-26T12:49:45;4.10;;;1.67;;
45540;SDS011;31265;49.680;8.608;2023-06-26T12:52:17;4.07;;;2.00;;
45540;SDS011;31265;49.680;8.608;2023-06-26T12:54:47;5.85;;;1.77;;
45540;SDS011;31265;49.680;8.608;2023-06-26T12:57:21;4.43;;;2.47;;
45540;SDS011;31265;49.680;8.608;2023-06-26T12:59:50;5.40;;;1.90;;
45540;SDS011;31265;49.680;8.608;2023-06-26T13:02:18;4.60;;;2.37;;
45540;SDS011;31265;49.680;8.608;2023-06-26T13:04:47;4.32;;;2.22;;
45540;SDS011;31265;49.680;8.608;2023-06-26T13:07:15;5.93;;;2.63;;
45540;SDS011;31265;49.680;8.608;2023-06-26T13:09:43;4.22;;;2.30;;
45540;SDS011;31265;49.680;8.608;2023-06-26T13:12:13;4.43;;;2.20;;
45540;SDS011;31265;49.680;8.608;2023-06-26T13:14:42;5.87;;;2.57;;
45540;SDS011;31265;49.680;8.608;2023-06-26T13:17:11;10.70;;;3.03;;
45540;SDS011;31265;49.680;8.608;2023-06-26T13:19:39;4.70;;;2.53;;
45540;SDS011;31265;49.680;8.608;2023-06-26T13:22:08;4.57;;;2.55;;
45540;SDS011;31265;49.680;8.608;2023-06-26T13:24:36;4.60;;;2.70;;
45540;SDS011;31265;49.680;8.608;2023-06-26T13:27:04;4.53;;;2.85;;
45540;SDS011;31265;49.680;8.608;2023-06-26T13:29:33;4.55;;;2.58;;
45540;SDS011;31265;49.680;8.608;2023-06-26T13:32:03;6.75;;;2.13;;
45540;SDS011;31265;49.680;8.608;2023-06-26T13:34:31;6.55;;;3.17;;
45540;SDS011;31265;49.680;8.608;2023-06-26T13:37:00;4.40;;;2.30;;
45540;SDS011;31265;49.680;8.608;2023-06-26T13:39:28;3.67;;;1.85;;
45540;SDS011;31265;49.680;8.608;2023-06-26T13:41:57;6.03;;;2.13;;
45540;SDS011;31265;49.680;8.608;2023-06-26T13:44:25;5.80;;;2.38;;
45540;SDS011;31265;49.680;8.608;2023-06-26T13:47:10;6.72;;;3.40;;
45540;SDS011;31265;49.680;8.608;2023-06-26T13:49:40;3.08;;;1.83;;
45540;SDS011;31265;49.680;8.608;2023-06-26T13:52:08;4.47;;;1.80;;
45540;SDS011;31265;49.680;8.608;2023-06-26T13:54:36;4.13;;;1.90;;
45540;SDS011;31265;49.680;8.608;2023-06-26T13:57:06;2.10;;;1.30;;
45540;SDS011;31265;49.680;8.608;2023-06-26T13:59:36;6.07;;;2.22;;
45540;SDS011;31265;49.680;8.608;2023-06-26T14:02:06;4.65;;;1.95;;
45540;SDS011;31265;49.680;8.608;2023-06-26T14:04:36;3.38;;;1.55;;
45540;SDS011;31265;49.680;8.608;2023-06-26T14:07:05;2.92;;;1.60;;
45540;SDS011;31265;49.680;8.608;2023-06-26T14:12:02;1.88;;;0.75;;
45540;SDS011;31265;49.680;8.608;2023-06-26T14:14:32;2.03;;;0.60;;
45540;SDS011;31265;49.680;8.608;2023-06-26T14:17:00;2.13;;;0.85;;
45540;SDS011;31265;49.680;8.608;2023-06-26T14:19:29;2.80;;;0.90;;
45540;SDS011;31265;49.680;8.608;2023-06-26T14:21:59;1.75;;;0.90;;
45540;SDS011;31265;49.680;8.608;2023-06-26T14:24:28;2.35;;;1.10;;
45540;SDS011;31265;49.680;8.608;2023-06-26T14:26:56;2.22;;;1.00;;
45540;SDS011;31265;49.680;8.608;2023-06-26T14:29:24;2.47;;;1.02;;
45540;SDS011;31265;49.680;8.608;2023-06-26T14:31:53;3.63;;;0.80;;
45540;SDS011;31265;49.680;8.608;2023-06-26T14:34:22;3.17;;;1.00;;
45540;SDS011;31265;49.680;8.608;2023-06-26T14:36:51;2.33;;;0.70;;
45540;SDS011;31265;49.680;8.608;2023-06-26T14:39:20;2.00;;;1.05;;
45540;SDS011;31265;49.680;8.608;2023-06-26T14:41:49;3.97;;;1.00;;
45540;SDS011;31265;49.680;8.608;2023-06-26T14:44:18;2.30;;;1.00;;
45540;SDS011;31265;49.680;8.608;2023-06-26T14:46:47;3.33;;;0.57;;
45540;SDS011;31265;49.680;8.608;2023-06-26T14:49:15;2.93;;;0.80;;
45540;SDS011;31265;49.680;8.608;2023-06-26T14:51:45;3.10;;;1.20;;
45540;SDS011;31265;49.680;8.608;2023-06-26T14:54:14;3.30;;;1.10;;
45540;SDS011;31265;49.680;8.608;2023-06-26T14:56:43;2.63;;;0.95;;
45540;SDS011;31265;49.680;8.608;2023-06-26T14:59:12;1.98;;;1.27;;
45540;SDS011;31265;49.680;8.608;2023-06-26T15:01:40;2.22;;;0.82;;
45540;SDS011;31265;49.680;8.608;2023-06-26T15:04:09;3.42;;;0.77;;
45540;SDS011;31265;49.680;8.608;2023-06-26T15:09:06;0.85;;;0.47;;
45540;SDS011;31265;49.680;8.608;2023-06-26T15:11:35;2.53;;;0.77;;
45540;SDS011;31265;49.680;8.608;2023-06-26T15:14:05;2.53;;;1.38;;
45540;SDS011;31265;49.680;8.608;2023-06-26T15:16:34;7.53;;;1.23;;
45540;SDS011;31265;49.680;8.608;2023-06-26T15:19:02;1.47;;;0.50;;
45540;SDS011;31265;49.680;8.608;2023-06-26T15:21:31;1.92;;;0.75;;
45540;SDS011;31265;49.680;8.608;2023-06-26T15:23:59;1.25;;;0.57;;
45540;SDS011;31265;49.680;8.608;2023-06-26T15:26:28;1.90;;;0.60;;
45540;SDS011;31265;49.680;8.608;2023-06-26T15:28:56;4.10;;;0.73;;
45540;SDS011;31265;49.680;8.608;2023-06-26T15:31:29;2.33;;;0.80;;
45540;SDS011;31265;49.680;8.608;2023-06-26T15:33:58;1.70;;;0.50;;
45540;SDS011;31265;49.680;8.608;2023-06-26T15:36:26;2.30;;;0.80;;
45540;SDS011;31265;49.680;8.608;2023-06-26T15:38:54;1.88;;;0.63;;
45540;SDS011;31265;49.680;8.608;2023-06-26T15:41:23;3.20;;;0.87;;
45540;SDS011;31265;49.680;8.608;2023-06-26T15:43:51;1.83;;;0.60;;
45540;SDS011;31265;49.680;8.608;2023-06-26T15:46:19;1.30;;;0.60;;